(°C)
26°
26°
25°
23°
22°
21°
21°
(°C)
26°
26°
25°
23°
22°
21°
21°
NNW
NNW
NNW
NNW
NNW
NW
SW
(km/h)
6-11
4-11
4-10
4-9
4-8
3-7
3-5
(mm)
0
0
0
0
0
0
0
(%)
11
1
4
7
9
6
3

Elevazione del sole

/ 13.3°
sun-icon
UV 4
05:54
20:33
Gibbosa crescente (144°)
19:36
02:21

METAR per Renton (KRNT)

Ora Condizioni Temperatura/
Punto di rugiada
Vento Visibilità Meteo Nuvole Pressione Cambiamento Grezzo
VFR 25°C / 15°C 350º 5kt >10km - Clear 1012 - KRNT 100053Z 35005KT 10SM CLR 25/15 A2988 RMK AO2 SLP122 T02500150
VFR 24.4°C / 15°C variable 0kt >10km - Clear 1012 - KRNT 092353Z 00000KT 10SM CLR 24/15 A2989 RMK AO2 SLP127 T02440150 10256 20189 56013
VFR 22.8°C / 15.6°C 350º 5kt >10km - Clear 1012 - KRNT 092253Z 35005KT 10SM CLR 23/16 A2990 RMK AO2 SLP129 T02280156
VFR 22.8°C / 15°C 350º 5kt >10km - Clear 1013 - KRNT 092153Z 35005KT 10SM CLR 23/15 A2990 RMK AO2 SLP131 T02280150
VFR 22.2°C / 15°C 350º 5kt >10km - Clear 1014 - KRNT 092053Z 35005KT 10SM CLR 22/15 A2993 RMK AO2 SLP140 T02220150 58010
VFR 19.4°C / 14.4°C variable 0kt >10km - Clear 1014 - KRNT 091953Z 00000KT 10SM CLR 19/14 A2995 RMK AO2 SLP146 T01940144
VFR 19.4°C / 13.9°C variable 0kt >10km - Scattered Clouds 1900ft 1014 - KRNT 091853Z 00000KT 10SM SCT019 19/14 A2995 RMK AO2 SLP148 T01940139
VFR 19.4°C / 13.9°C 170º 4kt >10km - Scattered Clouds 1800ft - KRNT 091809Z 17004KT 10SM SCT018 19/14 A2996 RMK AO2 T01940139
MVFR 19.4°C / 13.9°C 180º 4kt >10km - Broken Clouds 1700ft 1014 - KRNT 091753Z 18004KT 7SM BKN017 19/14 A2996 RMK AO2 SLP149 T01940139 10194 20161 58005
VFR 18.3°C / 13.9°C 350º 3kt >10km - Clear 1014 - KRNT 091653Z 35003KT 10SM CLR 18/14 A2996 RMK AO2 SLP149 T01830139
VFR 17.2°C / 13.3°C 280º 4kt >10km - Few Clouds 1300ft - KRNT 091607Z 28004KT 10SM FEW013 17/13 A2997 RMK AO2 T01720133
VFR 17.2°C / 13.3°C 190º 4kt >10km - Clear 1015 - KRNT 091553Z 19004KT 10SM CLR 17/13 A2999 RMK AO2 SLP158 T01720133
VFR 16.7°C / 13.3°C 180º 4kt >10km - Few Clouds 1100ft
Scattered Clouds 9500ft
1015 - KRNT 091453Z 18004KT 10SM FEW011 SCT095 17/13 A2997 RMK AO2 SLP155 T01670133 55000
MVFR 16.7°C / 13.3°C 230º 4kt >10km - Broken Clouds 1200ft - KRNT 091406Z 23004KT 10SM BKN012 17/13 A2997 RMK AO2 T01670133
IFR 16.7°C / 13.3°C 220º 3kt 2400m - Few Clouds 1100ft 1015 - KRNT 091353Z AUTO 22003KT 1 1/2SM FEW011 17/13 A2997 RMK AO2 VIS 3/4V3 SLP154 T01670133
IFR 16.7°C / 13.3°C variable 0kt 3200m - Clear - KRNT 091339Z AUTO 00000KT 2SM CLR 17/13 A2997 RMK AO2 VIS 3/4V4 T01670133
LIFR 16.7°C / 13.3°C variable 3kt 800m - Clear - KRNT 091323Z AUTO VRB03KT 1/2SM CLR 17/13 A2996 RMK AO2 T01670133
IFR 16.1°C / 13.3°C 340º 7kt 2000m - Clear - KRNT 091312Z AUTO 34007KT 1 1/4SM CLR 16/13 A2994 RMK AO2 PRESFR T01610133
IFR 16.7°C / 13.3°C variable 0kt 4000m - Clear 1015 - KRNT 091253Z AUTO 00000KT 2 1/2SM CLR 17/13 A2997 RMK AO2 VIS 1 3/4V4 SLP155 T01670133
MVFR 16.7°C / 13.3°C 190º 6kt 8000m - Clear 1015 - KRNT 091153Z AUTO 19006KT 5SM CLR 17/13 A2998 RMK AO2 SLP155 T01670133 10228 20167 50003
MVFR 17.2°C / 13.3°C 190º 4kt 8000m - Clear 1015 - KRNT 091053Z AUTO 19004KT 5SM CLR 17/13 A2998 RMK AO2 SLP157 T01720133
VFR 17.2°C / 13.3°C 180º 5kt 9700m - Clear 1015 - KRNT 090953Z AUTO 18005KT 6SM CLR 17/13 A2997 RMK AO2 SLP154 T01720133
VFR 17.8°C / 13.3°C 190º 5kt 9700m - Clear 1015 - KRNT 090853Z AUTO 19005KT 6SM CLR 18/13 A2997 RMK AO2 SLP152 T01780133 51015
VFR 18.3°C / 13.3°C 170º 7kt >10km - Clear 1014 - KRNT 090753Z AUTO 17007KT 7SM CLR 18/13 A2996 RMK AO2 SLP149 T01830133 403220161

VFR

25°C / 15°C

[Più]
Vento 350º 5kt
Visibilità >10km
Meteo -
Nuvole Clear
Pressione 1012
Cambiamento -
Grezzo KRNT 100053Z 35005KT 10SM CLR 25/15 A2988 RMK AO2 SLP122 T02500150

VFR

24.4°C / 15°C

[Più]
Vento variable 0kt
Visibilità >10km
Meteo -
Nuvole Clear
Pressione 1012
Cambiamento -
Grezzo KRNT 092353Z 00000KT 10SM CLR 24/15 A2989 RMK AO2 SLP127 T02440150 10256 20189 56013

VFR

22.8°C / 15.6°C

[Più]
Vento 350º 5kt
Visibilità >10km
Meteo -
Nuvole Clear
Pressione 1012
Cambiamento -
Grezzo KRNT 092253Z 35005KT 10SM CLR 23/16 A2990 RMK AO2 SLP129 T02280156

VFR

22.8°C / 15°C

[Più]
Vento 350º 5kt
Visibilità >10km
Meteo -
Nuvole Clear
Pressione 1013
Cambiamento -
Grezzo KRNT 092153Z 35005KT 10SM CLR 23/15 A2990 RMK AO2 SLP131 T02280150

VFR

22.2°C / 15°C

[Più]
Vento 350º 5kt
Visibilità >10km
Meteo -
Nuvole Clear
Pressione 1014
Cambiamento -
Grezzo KRNT 092053Z 35005KT 10SM CLR 22/15 A2993 RMK AO2 SLP140 T02220150 58010

VFR

19.4°C / 14.4°C

[Più]
Vento variable 0kt
Visibilità >10km
Meteo -
Nuvole Clear
Pressione 1014
Cambiamento -
Grezzo KRNT 091953Z 00000KT 10SM CLR 19/14 A2995 RMK AO2 SLP146 T01940144

VFR

19.4°C / 13.9°C

[Più]
Vento variable 0kt
Visibilità >10km
Meteo -
Nuvole Scattered Clouds 1900ft
Pressione 1014
Cambiamento -
Grezzo KRNT 091853Z 00000KT 10SM SCT019 19/14 A2995 RMK AO2 SLP148 T01940139

VFR

19.4°C / 13.9°C

[Più]
Vento 170º 4kt
Visibilità >10km
Meteo -
Nuvole Scattered Clouds 1800ft
Pressione
Cambiamento -
Grezzo KRNT 091809Z 17004KT 10SM SCT018 19/14 A2996 RMK AO2 T01940139

MVFR

19.4°C / 13.9°C

[Più]
Vento 180º 4kt
Visibilità >10km
Meteo -
Nuvole Broken Clouds 1700ft
Pressione 1014
Cambiamento -
Grezzo KRNT 091753Z 18004KT 7SM BKN017 19/14 A2996 RMK AO2 SLP149 T01940139 10194 20161 58005

VFR

18.3°C / 13.9°C

[Più]
Vento 350º 3kt
Visibilità >10km
Meteo -
Nuvole Clear
Pressione 1014
Cambiamento -
Grezzo KRNT 091653Z 35003KT 10SM CLR 18/14 A2996 RMK AO2 SLP149 T01830139

VFR

17.2°C / 13.3°C

[Più]
Vento 280º 4kt
Visibilità >10km
Meteo -
Nuvole Few Clouds 1300ft
Pressione
Cambiamento -
Grezzo KRNT 091607Z 28004KT 10SM FEW013 17/13 A2997 RMK AO2 T01720133

VFR

17.2°C / 13.3°C

[Più]
Vento 190º 4kt
Visibilità >10km
Meteo -
Nuvole Clear
Pressione 1015
Cambiamento -
Grezzo KRNT 091553Z 19004KT 10SM CLR 17/13 A2999 RMK AO2 SLP158 T01720133

VFR

16.7°C / 13.3°C

[Più]
Vento 180º 4kt
Visibilità >10km
Meteo -
Nuvole Few Clouds 1100ft
Scattered Clouds 9500ft
Pressione 1015
Cambiamento -
Grezzo KRNT 091453Z 18004KT 10SM FEW011 SCT095 17/13 A2997 RMK AO2 SLP155 T01670133 55000

MVFR

16.7°C / 13.3°C

[Più]
Vento 230º 4kt
Visibilità >10km
Meteo -
Nuvole Broken Clouds 1200ft
Pressione
Cambiamento -
Grezzo KRNT 091406Z 23004KT 10SM BKN012 17/13 A2997 RMK AO2 T01670133

IFR

16.7°C / 13.3°C

[Più]
Vento 220º 3kt
Visibilità 2400m
Meteo -
Nuvole Few Clouds 1100ft
Pressione 1015
Cambiamento -
Grezzo KRNT 091353Z AUTO 22003KT 1 1/2SM FEW011 17/13 A2997 RMK AO2 VIS 3/4V3 SLP154 T01670133

IFR

16.7°C / 13.3°C

[Più]
Vento variable 0kt
Visibilità 3200m
Meteo -
Nuvole Clear
Pressione
Cambiamento -
Grezzo KRNT 091339Z AUTO 00000KT 2SM CLR 17/13 A2997 RMK AO2 VIS 3/4V4 T01670133

LIFR

16.7°C / 13.3°C

[Più]
Vento variable 3kt
Visibilità 800m
Meteo -
Nuvole Clear
Pressione
Cambiamento -
Grezzo KRNT 091323Z AUTO VRB03KT 1/2SM CLR 17/13 A2996 RMK AO2 T01670133

IFR

16.1°C / 13.3°C

[Più]
Vento 340º 7kt
Visibilità 2000m
Meteo -
Nuvole Clear
Pressione
Cambiamento -
Grezzo KRNT 091312Z AUTO 34007KT 1 1/4SM CLR 16/13 A2994 RMK AO2 PRESFR T01610133

IFR

16.7°C / 13.3°C

[Più]
Vento variable 0kt
Visibilità 4000m
Meteo -
Nuvole Clear
Pressione 1015
Cambiamento -
Grezzo KRNT 091253Z AUTO 00000KT 2 1/2SM CLR 17/13 A2997 RMK AO2 VIS 1 3/4V4 SLP155 T01670133

MVFR

16.7°C / 13.3°C

[Più]
Vento 190º 6kt
Visibilità 8000m
Meteo -
Nuvole Clear
Pressione 1015
Cambiamento -
Grezzo KRNT 091153Z AUTO 19006KT 5SM CLR 17/13 A2998 RMK AO2 SLP155 T01670133 10228 20167 50003

MVFR

17.2°C / 13.3°C

[Più]
Vento 190º 4kt
Visibilità 8000m
Meteo -
Nuvole Clear
Pressione 1015
Cambiamento -
Grezzo KRNT 091053Z AUTO 19004KT 5SM CLR 17/13 A2998 RMK AO2 SLP157 T01720133

VFR

17.2°C / 13.3°C

[Più]
Vento 180º 5kt
Visibilità 9700m
Meteo -
Nuvole Clear
Pressione 1015
Cambiamento -
Grezzo KRNT 090953Z AUTO 18005KT 6SM CLR 17/13 A2997 RMK AO2 SLP154 T01720133

VFR

17.8°C / 13.3°C

[Più]
Vento 190º 5kt
Visibilità 9700m
Meteo -
Nuvole Clear
Pressione 1015
Cambiamento -
Grezzo KRNT 090853Z AUTO 19005KT 6SM CLR 18/13 A2997 RMK AO2 SLP152 T01780133 51015

VFR

18.3°C / 13.3°C

[Più]
Vento 170º 7kt
Visibilità >10km
Meteo -
Nuvole Clear
Pressione 1014
Cambiamento -
Grezzo KRNT 090753Z AUTO 17007KT 7SM CLR 18/13 A2996 RMK AO2 SLP149 T01830133 403220161

Radar e nowcasting per Renton

Pioviggine
Lieve
Moderato
Forte
Molto forte
Grandine

Il segnaposto è situato a Renton. Questa animazione mostra il radar delle precipitazioni per l'ultima ora, nonché una previsione 1h. Una pioviggine o una leggera caduta di neve potrebbero essere invisibili per il radar. L'intensità delle precipitazioni è codificata a colori, dal blu chiaro all'arancione.

Immagine satellitare per Renton, Stati Uniti

Il segnaposto è situato a Renton. [Più]

L'immagine satellitare in tempo reale combina la luce visibile durante il giorno con la radiazione infrarossa durante la notte. Di notte l'immagine non è scura poiché i raggi infrarossi possono rilevare differenze di temperatura. Purtroppo, le nuvole basse e la nebbia sono difficili da distinguere dalla temperatura del suolo e possono pertanto essere quasi invisibili durante la notte. Le immagini satellitari Meteosat per l'Europa vengono aggiornate in tempo reale ogni 5 minuti. Le immagini GOES-16 / GOES-17 (Nord e Sud America) e Himawari (Asia) vengono aggiornate ogni 10 minuti.

Tornare su